Terminal Aerodrome Forecast
Issued by NWS Corpus Christi, TX

Home | Current Version | Previous Version | Text Only | Print | Product List | Glossary On
Versions: 1 2 3 4 5 6 7 8 9 10 11 12 13 14 15
000
FTUS44 KCRP 071121
TAFCRP
TAF
KCRP 071121Z 0712/0812 16010KT P6SM BKN009 OVC250
     FM071500 16015G25KT P6SM SCT025 BKN035
      TEMPO 0715/0717 BKN025
     FM072100 13020G30KT P6SM SCT035 BKN250
     FM080400 15015KT P6SM SCT015
     FM080600 16008KT P6SM BKN012=

USA.gov is the U.S. government's official web portal to all federal, state and local government web resources and services.